sensor_id;sensor_type;location;lat;lon;timestamp;P1;durP1;ratioP1;P2;durP2;ratioP2
21905;SDS011;11117;48.644;9.006;2024-01-25T00:00:54;23.83;;;3.30;;
21905;SDS011;11117;48.644;9.006;2024-01-25T00:03:20;23.63;;;3.53;;
21905;SDS011;11117;48.644;9.006;2024-01-25T00:05:46;30.83;;;3.83;;
21905;SDS011;11117;48.644;9.006;2024-01-25T00:08:12;23.77;;;3.63;;
21905;SDS011;11117;48.644;9.006;2024-01-25T00:10:38;22.63;;;3.50;;
21905;SDS011;11117;48.644;9.006;2024-01-25T00:13:04;23.67;;;3.60;;
21905;SDS011;11117;48.644;9.006;2024-01-25T00:15:30;23.60;;;4.00;;
21905;SDS011;11117;48.644;9.006;2024-01-25T00:17:55;26.43;;;3.30;;
21905;SDS011;11117;48.644;9.006;2024-01-25T00:20:21;31.90;;;3.73;;
21905;SDS011;11117;48.644;9.006;2024-01-25T00:22:46;24.27;;;2.90;;
21905;SDS011;11117;48.644;9.006;2024-01-25T00:25:12;20.10;;;3.70;;
21905;SDS011;11117;48.644;9.006;2024-01-25T00:27:37;23.87;;;3.33;;
21905;SDS011;11117;48.644;9.006;2024-01-25T00:30:03;29.87;;;3.47;;
21905;SDS011;11117;48.644;9.006;2024-01-25T00:32:29;25.93;;;3.40;;
21905;SDS011;11117;48.644;9.006;2024-01-25T00:34:54;29.53;;;3.40;;
21905;SDS011;11117;48.644;9.006;2024-01-25T00:37:20;19.03;;;3.03;;
21905;SDS011;11117;48.644;9.006;2024-01-25T00:39:46;19.77;;;3.60;;
21905;SDS011;11117;48.644;9.006;2024-01-25T00:42:14;26.53;;;3.40;;
21905;SDS011;11117;48.644;9.006;2024-01-25T00:44:41;26.13;;;3.07;;
21905;SDS011;11117;48.644;9.006;2024-01-25T00:47:09;20.07;;;3.27;;
21905;SDS011;11117;48.644;9.006;2024-01-25T00:49:35;18.30;;;3.37;;
21905;SDS011;11117;48.644;9.006;2024-01-25T00:52:02;23.07;;;3.20;;
21905;SDS011;11117;48.644;9.006;2024-01-25T00:54:28;21.47;;;3.23;;
21905;SDS011;11117;48.644;9.006;2024-01-25T00:56:54;18.60;;;3.33;;
21905;SDS011;11117;48.644;9.006;2024-01-25T00:59:20;23.83;;;3.40;;
21905;SDS011;11117;48.644;9.006;2024-01-25T01:01:46;23.73;;;2.77;;
21905;SDS011;11117;48.644;9.006;2024-01-25T01:04:12;17.97;;;2.70;;
21905;SDS011;11117;48.644;9.006;2024-01-25T01:06:39;30.53;;;3.13;;
21905;SDS011;11117;48.644;9.006;2024-01-25T01:09:04;32.70;;;3.93;;
21905;SDS011;11117;48.644;9.006;2024-01-25T01:11:30;19.73;;;3.07;;
21905;SDS011;11117;48.644;9.006;2024-01-25T01:13:55;23.17;;;2.97;;
21905;SDS011;11117;48.644;9.006;2024-01-25T01:16:21;20.17;;;2.90;;
21905;SDS011;11117;48.644;9.006;2024-01-25T01:18:47;24.40;;;3.63;;
21905;SDS011;11117;48.644;9.006;2024-01-25T01:21:12;23.80;;;3.27;;
21905;SDS011;11117;48.644;9.006;2024-01-25T01:23:38;24.07;;;3.00;;
21905;SDS011;11117;48.644;9.006;2024-01-25T01:26:03;21.13;;;2.73;;
21905;SDS011;11117;48.644;9.006;2024-01-25T01:28:29;28.37;;;3.93;;
21905;SDS011;11117;48.644;9.006;2024-01-25T01:30:55;22.43;;;2.97;;
21905;SDS011;11117;48.644;9.006;2024-01-25T01:33:20;31.57;;;3.23;;
21905;SDS011;11117;48.644;9.006;2024-01-25T01:35:46;18.10;;;3.13;;
21905;SDS011;11117;48.644;9.006;2024-01-25T01:38:12;20.10;;;2.80;;
21905;SDS011;11117;48.644;9.006;2024-01-25T01:40:37;25.57;;;2.80;;
21905;SDS011;11117;48.644;9.006;2024-01-25T01:43:03;20.33;;;2.93;;
21905;SDS011;11117;48.644;9.006;2024-01-25T01:45:28;24.73;;;3.07;;
21905;SDS011;11117;48.644;9.006;2024-01-25T01:47:58;20.87;;;3.17;;
21905;SDS011;11117;48.644;9.006;2024-01-25T01:50:24;20.57;;;2.60;;
21905;SDS011;11117;48.644;9.006;2024-01-25T01:52:50;18.87;;;3.23;;
21905;SDS011;11117;48.644;9.006;2024-01-25T01:55:17;21.43;;;3.10;;
21905;SDS011;11117;48.644;9.006;2024-01-25T01:57:43;20.63;;;3.10;;
21905;SDS011;11117;48.644;9.006;2024-01-25T02:00:10;24.10;;;3.23;;
21905;SDS011;11117;48.644;9.006;2024-01-25T02:02:37;18.07;;;2.80;;
21905;SDS011;11117;48.644;9.006;2024-01-25T02:05:03;28.10;;;3.43;;
21905;SDS011;11117;48.644;9.006;2024-01-25T02:07:29;14.80;;;2.57;;
21905;SDS011;11117;48.644;9.006;2024-01-25T02:09:55;24.07;;;3.87;;
21905;SDS011;11117;48.644;9.006;2024-01-25T02:12:21;24.97;;;3.80;;
21905;SDS011;11117;48.644;9.006;2024-01-25T02:14:46;20.57;;;3.10;;
21905;SDS011;11117;48.644;9.006;2024-01-25T02:17:13;16.97;;;2.67;;
21905;SDS011;11117;48.644;9.006;2024-01-25T02:19:39;25.03;;;3.90;;
21905;SDS011;11117;48.644;9.006;2024-01-25T02:22:05;22.80;;;4.30;;
21905;SDS011;11117;48.644;9.006;2024-01-25T02:24:30;21.67;;;2.70;;
21905;SDS011;11117;48.644;9.006;2024-01-25T02:26:56;31.17;;;3.67;;
21905;SDS011;11117;48.644;9.006;2024-01-25T02:29:22;19.80;;;3.60;;
21905;SDS011;11117;48.644;9.006;2024-01-25T02:31:47;24.77;;;3.10;;
21905;SDS011;11117;48.644;9.006;2024-01-25T02:34:13;28.20;;;4.40;;
21905;SDS011;11117;48.644;9.006;2024-01-25T02:36:39;22.57;;;3.37;;
21905;SDS011;11117;48.644;9.006;2024-01-25T02:39:05;23.27;;;3.47;;
21905;SDS011;11117;48.644;9.006;2024-01-25T02:41:30;26.60;;;3.27;;
21905;SDS011;11117;48.644;9.006;2024-01-25T02:43:56;20.97;;;2.80;;
21905;SDS011;11117;48.644;9.006;2024-01-25T02:46:22;20.57;;;3.10;;
21905;SDS011;11117;48.644;9.006;2024-01-25T02:48:48;24.20;;;3.07;;
21905;SDS011;11117;48.644;9.006;2024-01-25T02:51:14;25.10;;;2.93;;
21905;SDS011;11117;48.644;9.006;2024-01-25T02:53:39;27.03;;;3.50;;
21905;SDS011;11117;48.644;9.006;2024-01-25T02:56:05;29.53;;;3.43;;
21905;SDS011;11117;48.644;9.006;2024-01-25T02:58:31;22.63;;;3.07;;
21905;SDS011;11117;48.644;9.006;2024-01-25T03:00:57;21.33;;;3.10;;
21905;SDS011;11117;48.644;9.006;2024-01-25T03:03:22;27.50;;;3.33;;
21905;SDS011;11117;48.644;9.006;2024-01-25T03:05:48;19.37;;;3.20;;
21905;SDS011;11117;48.644;9.006;2024-01-25T03:08:14;22.60;;;3.03;;
21905;SDS011;11117;48.644;9.006;2024-01-25T03:10:39;20.47;;;3.33;;
21905;SDS011;11117;48.644;9.006;2024-01-25T03:13:05;19.83;;;2.70;;
21905;SDS011;11117;48.644;9.006;2024-01-25T03:15:30;24.60;;;3.40;;
21905;SDS011;11117;48.644;9.006;2024-01-25T03:17:56;21.57;;;2.93;;
21905;SDS011;11117;48.644;9.006;2024-01-25T03:20:22;19.13;;;2.90;;
21905;SDS011;11117;48.644;9.006;2024-01-25T03:22:47;15.70;;;2.67;;
21905;SDS011;11117;48.644;9.006;2024-01-25T03:25:13;28.83;;;3.77;;
21905;SDS011;11117;48.644;9.006;2024-01-25T03:27:38;22.90;;;2.70;;
21905;SDS011;11117;48.644;9.006;2024-01-25T03:30:04;22.10;;;2.97;;
21905;SDS011;11117;48.644;9.006;2024-01-25T03:32:30;19.23;;;2.30;;
21905;SDS011;11117;48.644;9.006;2024-01-25T03:34:55;21.60;;;3.00;;
21905;SDS011;11117;48.644;9.006;2024-01-25T03:37:21;23.10;;;3.03;;
21905;SDS011;11117;48.644;9.006;2024-01-25T03:39:46;20.03;;;3.60;;
21905;SDS011;11117;48.644;9.006;2024-01-25T03:42:13;14.80;;;3.00;;
21905;SDS011;11117;48.644;9.006;2024-01-25T03:44:39;17.83;;;2.60;;
21905;SDS011;11117;48.644;9.006;2024-01-25T03:47:04;14.13;;;2.77;;
21905;SDS011;11117;48.644;9.006;2024-01-25T03:49:30;12.77;;;2.20;;
21905;SDS011;11117;48.644;9.006;2024-01-25T03:51:55;20.07;;;2.63;;
21905;SDS011;11117;48.644;9.006;2024-01-25T03:54:21;16.80;;;2.37;;
21905;SDS011;11117;48.644;9.006;2024-01-25T03:56:46;17.03;;;2.60;;
21905;SDS011;11117;48.644;9.006;2024-01-25T03:59:12;19.33;;;2.70;;
21905;SDS011;11117;48.644;9.006;2024-01-25T04:01:41;19.30;;;2.97;;
21905;SDS011;11117;48.644;9.006;2024-01-25T04:04:09;26.60;;;3.33;;
21905;SDS011;11117;48.644;9.006;2024-01-25T04:06:35;21.57;;;3.07;;
21905;SDS011;11117;48.644;9.006;2024-01-25T04:09:03;19.47;;;2.97;;
21905;SDS011;11117;48.644;9.006;2024-01-25T04:11:28;23.63;;;2.90;;
21905;SDS011;11117;48.644;9.006;2024-01-25T04:13:54;23.67;;;3.17;;
21905;SDS011;11117;48.644;9.006;2024-01-25T04:16:19;15.67;;;2.20;;
21905;SDS011;11117;48.644;9.006;2024-01-25T04:18:45;20.93;;;2.77;;
21905;SDS011;11117;48.644;9.006;2024-01-25T04:21:11;18.50;;;2.77;;
21905;SDS011;11117;48.644;9.006;2024-01-25T04:23:36;16.50;;;2.23;;
21905;SDS011;11117;48.644;9.006;2024-01-25T04:26:02;17.07;;;2.73;;
21905;SDS011;11117;48.644;9.006;2024-01-25T04:28:27;25.40;;;3.63;;
21905;SDS011;11117;48.644;9.006;2024-01-25T04:30:53;18.60;;;3.30;;
21905;SDS011;11117;48.644;9.006;2024-01-25T04:33:19;18.63;;;2.70;;
21905;SDS011;11117;48.644;9.006;2024-01-25T04:35:44;22.87;;;3.37;;
21905;SDS011;11117;48.644;9.006;2024-01-25T04:38:10;24.83;;;3.00;;
21905;SDS011;11117;48.644;9.006;2024-01-25T04:40:35;21.67;;;3.20;;
21905;SDS011;11117;48.644;9.006;2024-01-25T04:43:01;22.03;;;3.37;;
21905;SDS011;11117;48.644;9.006;2024-01-25T04:45:26;24.70;;;3.50;;
21905;SDS011;11117;48.644;9.006;2024-01-25T04:47:52;20.07;;;3.03;;
21905;SDS011;11117;48.644;9.006;2024-01-25T04:50:18;16.97;;;2.70;;
21905;SDS011;11117;48.644;9.006;2024-01-25T04:52:43;13.63;;;2.83;;
21905;SDS011;11117;48.644;9.006;2024-01-25T04:55:09;21.17;;;3.30;;
21905;SDS011;11117;48.644;9.006;2024-01-25T04:57:36;18.93;;;3.20;;
21905;SDS011;11117;48.644;9.006;2024-01-25T05:00:01;29.67;;;3.67;;
21905;SDS011;11117;48.644;9.006;2024-01-25T05:02:27;22.83;;;3.80;;
21905;SDS011;11117;48.644;9.006;2024-01-25T05:04:53;24.97;;;3.13;;
21905;SDS011;11117;48.644;9.006;2024-01-25T05:07:18;16.70;;;3.00;;
21905;SDS011;11117;48.644;9.006;2024-01-25T05:09:44;22.97;;;3.37;;
21905;SDS011;11117;48.644;9.006;2024-01-25T05:12:13;16.27;;;2.70;;
21905;SDS011;11117;48.644;9.006;2024-01-25T05:14:38;24.33;;;3.63;;
21905;SDS011;11117;48.644;9.006;2024-01-25T05:17:04;18.17;;;3.37;;
21905;SDS011;11117;48.644;9.006;2024-01-25T05:19:29;29.40;;;3.20;;
21905;SDS011;11117;48.644;9.006;2024-01-25T05:21:55;21.00;;;3.43;;
21905;SDS011;11117;48.644;9.006;2024-01-25T05:24:21;19.90;;;3.23;;
21905;SDS011;11117;48.644;9.006;2024-01-25T05:26:46;28.57;;;3.77;;
21905;SDS011;11117;48.644;9.006;2024-01-25T05:29:12;23.13;;;3.03;;
21905;SDS011;11117;48.644;9.006;2024-01-25T05:31:37;16.00;;;2.93;;
21905;SDS011;11117;48.644;9.006;2024-01-25T05:34:03;21.33;;;3.00;;
21905;SDS011;11117;48.644;9.006;2024-01-25T05:36:28;17.97;;;2.63;;
21905;SDS011;11117;48.644;9.006;2024-01-25T05:38:54;24.10;;;3.20;;
21905;SDS011;11117;48.644;9.006;2024-01-25T05:41:19;26.87;;;4.43;;
21905;SDS011;11117;48.644;9.006;2024-01-25T05:43:45;20.23;;;3.30;;
21905;SDS011;11117;48.644;9.006;2024-01-25T05:46:10;20.27;;;3.20;;
21905;SDS011;11117;48.644;9.006;2024-01-25T05:48:36;30.33;;;3.60;;
21905;SDS011;11117;48.644;9.006;2024-01-25T05:51:02;23.07;;;3.37;;
21905;SDS011;11117;48.644;9.006;2024-01-25T05:53:27;17.27;;;3.07;;
21905;SDS011;11117;48.644;9.006;2024-01-25T05:55:53;16.92;;;3.42;;
21905;SDS011;11117;48.644;9.006;2024-01-25T05:58:18;19.37;;;3.23;;
21905;SDS011;11117;48.644;9.006;2024-01-25T06:00:44;16.87;;;3.70;;
21905;SDS011;11117;48.644;9.006;2024-01-25T06:03:09;17.20;;;2.57;;
21905;SDS011;11117;48.644;9.006;2024-01-25T06:05:35;14.97;;;2.33;;
21905;SDS011;11117;48.644;9.006;2024-01-25T06:08:00;20.13;;;3.30;;
21905;SDS011;11117;48.644;9.006;2024-01-25T06:10:26;17.93;;;2.93;;
21905;SDS011;11117;48.644;9.006;2024-01-25T06:12:52;22.07;;;3.00;;
21905;SDS011;11117;48.644;9.006;2024-01-25T06:15:17;14.77;;;3.10;;
21905;SDS011;11117;48.644;9.006;2024-01-25T06:17:43;13.03;;;3.30;;
21905;SDS011;11117;48.644;9.006;2024-01-25T06:20:08;18.80;;;2.63;;
21905;SDS011;11117;48.644;9.006;2024-01-25T06:22:34;13.73;;;2.60;;
21905;SDS011;11117;48.644;9.006;2024-01-25T06:25:00;20.80;;;4.47;;
21905;SDS011;11117;48.644;9.006;2024-01-25T06:27:25;25.10;;;3.47;;
21905;SDS011;11117;48.644;9.006;2024-01-25T06:29:51;12.17;;;3.20;;
21905;SDS011;11117;48.644;9.006;2024-01-25T06:32:16;21.80;;;3.17;;
21905;SDS011;11117;48.644;9.006;2024-01-25T06:34:42;25.90;;;3.50;;
21905;SDS011;11117;48.644;9.006;2024-01-25T06:37:12;21.37;;;3.33;;
21905;SDS011;11117;48.644;9.006;2024-01-25T06:39:37;24.33;;;4.03;;
21905;SDS011;11117;48.644;9.006;2024-01-25T06:42:03;20.30;;;4.23;;
21905;SDS011;11117;48.644;9.006;2024-01-25T06:44:30;19.03;;;4.97;;
21905;SDS011;11117;48.644;9.006;2024-01-25T06:46:55;15.87;;;4.67;;
21905;SDS011;11117;48.644;9.006;2024-01-25T06:49:21;24.27;;;4.20;;
21905;SDS011;11117;48.644;9.006;2024-01-25T06:51:46;17.53;;;3.37;;
21905;SDS011;11117;48.644;9.006;2024-01-25T06:54:12;19.43;;;3.20;;
21905;SDS011;11117;48.644;9.006;2024-01-25T06:56:38;19.17;;;3.40;;
21905;SDS011;11117;48.644;9.006;2024-01-25T06:59:03;19.83;;;3.67;;
21905;SDS011;11117;48.644;9.006;2024-01-25T07:01:29;22.30;;;4.67;;
21905;SDS011;11117;48.644;9.006;2024-01-25T07:03:54;26.10;;;4.33;;
21905;SDS011;11117;48.644;9.006;2024-01-25T07:06:20;19.77;;;4.03;;
21905;SDS011;11117;48.644;9.006;2024-01-25T07:08:45;18.30;;;3.83;;
21905;SDS011;11117;48.644;9.006;2024-01-25T07:11:11;19.40;;;3.17;;
21905;SDS011;11117;48.644;9.006;2024-01-25T07:13:37;18.40;;;3.40;;
21905;SDS011;11117;48.644;9.006;2024-01-25T07:16:02;23.17;;;4.03;;
21905;SDS011;11117;48.644;9.006;2024-01-25T07:18:28;29.43;;;4.07;;
21905;SDS011;11117;48.644;9.006;2024-01-25T07:20:54;20.30;;;4.00;;
21905;SDS011;11117;48.644;9.006;2024-01-25T07:23:20;33.07;;;4.50;;
21905;SDS011;11117;48.644;9.006;2024-01-25T07:25:46;28.03;;;4.30;;
21905;SDS011;11117;48.644;9.006;2024-01-25T07:28:12;30.77;;;3.80;;
21905;SDS011;11117;48.644;9.006;2024-01-25T07:30:37;19.20;;;3.40;;
21905;SDS011;11117;48.644;9.006;2024-01-25T07:33:03;20.20;;;4.07;;
21905;SDS011;11117;48.644;9.006;2024-01-25T07:35:29;24.23;;;3.83;;
21905;SDS011;11117;48.644;9.006;2024-01-25T07:37:54;23.27;;;4.30;;
21905;SDS011;11117;48.644;9.006;2024-01-25T07:40:20;21.53;;;3.80;;
21905;SDS011;11117;48.644;9.006;2024-01-25T07:42:46;29.80;;;4.20;;
21905;SDS011;11117;48.644;9.006;2024-01-25T07:45:11;22.87;;;4.10;;
21905;SDS011;11117;48.644;9.006;2024-01-25T07:47:37;20.43;;;3.57;;
21905;SDS011;11117;48.644;9.006;2024-01-25T07:50:03;27.33;;;4.27;;
21905;SDS011;11117;48.644;9.006;2024-01-25T07:52:28;26.90;;;3.80;;
21905;SDS011;11117;48.644;9.006;2024-01-25T07:54:54;22.17;;;3.40;;
21905;SDS011;11117;48.644;9.006;2024-01-25T07:57:19;24.23;;;3.60;;
21905;SDS011;11117;48.644;9.006;2024-01-25T07:59:45;19.57;;;4.10;;
21905;SDS011;11117;48.644;9.006;2024-01-25T08:02:13;21.03;;;3.53;;
21905;SDS011;11117;48.644;9.006;2024-01-25T08:04:39;20.73;;;3.33;;
21905;SDS011;11117;48.644;9.006;2024-01-25T08:07:04;22.07;;;3.43;;
21905;SDS011;11117;48.644;9.006;2024-01-25T08:09:30;21.43;;;2.90;;
21905;SDS011;11117;48.644;9.006;2024-01-25T08:11:55;22.03;;;2.80;;
21905;SDS011;11117;48.644;9.006;2024-01-25T08:14:21;17.23;;;2.80;;
21905;SDS011;11117;48.644;9.006;2024-01-25T08:16:46;23.23;;;3.87;;
21905;SDS011;11117;48.644;9.006;2024-01-25T08:19:12;19.53;;;4.10;;
21905;SDS011;11117;48.644;9.006;2024-01-25T08:21:38;18.50;;;3.40;;
21905;SDS011;11117;48.644;9.006;2024-01-25T08:24:03;23.73;;;3.83;;
21905;SDS011;11117;48.644;9.006;2024-01-25T08:26:29;19.40;;;4.13;;
21905;SDS011;11117;48.644;9.006;2024-01-25T08:28:54;19.00;;;3.80;;
21905;SDS011;11117;48.644;9.006;2024-01-25T08:31:20;21.20;;;4.53;;
21905;SDS011;11117;48.644;9.006;2024-01-25T08:33:46;22.30;;;3.60;;
21905;SDS011;11117;48.644;9.006;2024-01-25T08:36:11;29.93;;;6.17;;
21905;SDS011;11117;48.644;9.006;2024-01-25T08:38:37;23.23;;;5.13;;
21905;SDS011;11117;48.644;9.006;2024-01-25T08:41:02;26.07;;;3.83;;
21905;SDS011;11117;48.644;9.006;2024-01-25T08:43:28;25.30;;;4.90;;
21905;SDS011;11117;48.644;9.006;2024-01-25T08:45:54;20.37;;;3.77;;
21905;SDS011;11117;48.644;9.006;2024-01-25T08:48:19;22.63;;;4.27;;
21905;SDS011;11117;48.644;9.006;2024-01-25T08:50:45;22.33;;;4.30;;
21905;SDS011;11117;48.644;9.006;2024-01-25T08:53:10;20.60;;;4.70;;
21905;SDS011;11117;48.644;9.006;2024-01-25T08:55:36;25.67;;;5.07;;
21905;SDS011;11117;48.644;9.006;2024-01-25T08:58:02;20.27;;;4.03;;
21905;SDS011;11117;48.644;9.006;2024-01-25T09:00:27;19.93;;;4.43;;
21905;SDS011;11117;48.644;9.006;2024-01-25T09:02:53;12.57;;;3.47;;
21905;SDS011;11117;48.644;9.006;2024-01-25T09:05:18;19.77;;;4.27;;
21905;SDS011;11117;48.644;9.006;2024-01-25T09:07:44;16.53;;;3.67;;
21905;SDS011;11117;48.644;9.006;2024-01-25T09:10:10;24.80;;;4.00;;
21905;SDS011;11117;48.644;9.006;2024-01-25T09:12:36;20.47;;;3.90;;
21905;SDS011;11117;48.644;9.006;2024-01-25T09:15:02;19.93;;;4.33;;
21905;SDS011;11117;48.644;9.006;2024-01-25T09:17:28;19.30;;;3.50;;
21905;SDS011;11117;48.644;9.006;2024-01-25T09:19:54;18.33;;;3.90;;
21905;SDS011;11117;48.644;9.006;2024-01-25T09:22:19;22.53;;;4.30;;
21905;SDS011;11117;48.644;9.006;2024-01-25T09:24:45;22.17;;;3.83;;
21905;SDS011;11117;48.644;9.006;2024-01-25T09:27:13;18.90;;;3.50;;
21905;SDS011;11117;48.644;9.006;2024-01-25T09:29:39;21.67;;;3.23;;
21905;SDS011;11117;48.644;9.006;2024-01-25T09:32:08;23.27;;;3.40;;
21905;SDS011;11117;48.644;9.006;2024-01-25T09:34:34;26.93;;;4.30;;
21905;SDS011;11117;48.644;9.006;2024-01-25T09:37:01;23.37;;;3.23;;
21905;SDS011;11117;48.644;9.006;2024-01-25T09:39:27;27.93;;;3.77;;
21905;SDS011;11117;48.644;9.006;2024-01-25T09:41:53;18.77;;;3.40;;
21905;SDS011;11117;48.644;9.006;2024-01-25T09:44:19;25.40;;;3.30;;
21905;SDS011;11117;48.644;9.006;2024-01-25T09:46:45;24.47;;;3.63;;
21905;SDS011;11117;48.644;9.006;2024-01-25T09:49:10;23.87;;;3.13;;
21905;SDS011;11117;48.644;9.006;2024-01-25T09:51:37;13.97;;;2.90;;
21905;SDS011;11117;48.644;9.006;2024-01-25T09:54:07;20.00;;;3.37;;
21905;SDS011;11117;48.644;9.006;2024-01-25T09:56:33;14.50;;;2.90;;
21905;SDS011;11117;48.644;9.006;2024-01-25T09:59:00;13.77;;;3.10;;
21905;SDS011;11117;48.644;9.006;2024-01-25T10:01:26;18.03;;;3.60;;
21905;SDS011;11117;48.644;9.006;2024-01-25T10:03:52;16.97;;;4.03;;
21905;SDS011;11117;48.644;9.006;2024-01-25T10:06:17;16.40;;;3.20;;
21905;SDS011;11117;48.644;9.006;2024-01-25T10:08:43;16.87;;;2.97;;
21905;SDS011;11117;48.644;9.006;2024-01-25T10:11:09;21.43;;;4.67;;
21905;SDS011;11117;48.644;9.006;2024-01-25T10:13:42;18.27;;;5.60;;
21905;SDS011;11117;48.644;9.006;2024-01-25T10:16:15;14.47;;;3.67;;
21905;SDS011;11117;48.644;9.006;2024-01-25T10:18:42;23.43;;;3.20;;
21905;SDS011;11117;48.644;9.006;2024-01-25T10:21:09;19.50;;;3.30;;
21905;SDS011;11117;48.644;9.006;2024-01-25T10:23:35;18.23;;;3.87;;
21905;SDS011;11117;48.644;9.006;2024-01-25T10:26:01;17.93;;;3.77;;
21905;SDS011;11117;48.644;9.006;2024-01-25T10:28:26;18.53;;;3.00;;
21905;SDS011;11117;48.644;9.006;2024-01-25T10:30:55;14.53;;;3.37;;
21905;SDS011;11117;48.644;9.006;2024-01-25T10:33:21;16.27;;;2.80;;
21905;SDS011;11117;48.644;9.006;2024-01-25T10:35:47;17.57;;;3.20;;
21905;SDS011;11117;48.644;9.006;2024-01-25T10:38:13;20.53;;;3.23;;
21905;SDS011;11117;48.644;9.006;2024-01-25T10:40:39;31.43;;;10.80;;
21905;SDS011;11117;48.644;9.006;2024-01-25T10:43:06;21.63;;;4.87;;
21905;SDS011;11117;48.644;9.006;2024-01-25T10:45:31;18.57;;;3.60;;
21905;SDS011;11117;48.644;9.006;2024-01-25T10:47:57;15.43;;;3.30;;
21905;SDS011;11117;48.644;9.006;2024-01-25T10:50:24;14.17;;;4.27;;
21905;SDS011;11117;48.644;9.006;2024-01-25T10:52:49;16.83;;;4.50;;
21905;SDS011;11117;48.644;9.006;2024-01-25T10:55:15;16.90;;;3.67;;
21905;SDS011;11117;48.644;9.006;2024-01-25T10:57:42;17.10;;;3.20;;
21905;SDS011;11117;48.644;9.006;2024-01-25T11:00:13;18.13;;;3.20;;
21905;SDS011;11117;48.644;9.006;2024-01-25T11:02:40;14.60;;;3.53;;
21905;SDS011;11117;48.644;9.006;2024-01-25T11:05:13;13.60;;;2.33;;
21905;SDS011;11117;48.644;9.006;2024-01-25T11:07:50;21.97;;;2.77;;
21905;SDS011;11117;48.644;9.006;2024-01-25T11:10:19;23.67;;;3.13;;
21905;SDS011;11117;48.644;9.006;2024-01-25T11:12:56;12.53;;;2.77;;
21905;SDS011;11117;48.644;9.006;2024-01-25T11:17:59;14.93;;;3.03;;
21905;SDS011;11117;48.644;9.006;2024-01-25T11:20:28;12.07;;;2.50;;
21905;SDS011;11117;48.644;9.006;2024-01-25T11:23:04;10.63;;;2.30;;
21905;SDS011;11117;48.644;9.006;2024-01-25T11:25:31;14.53;;;2.83;;
21905;SDS011;11117;48.644;9.006;2024-01-25T11:27:58;14.37;;;2.47;;
21905;SDS011;11117;48.644;9.006;2024-01-25T11:30:25;24.23;;;3.43;;
21905;SDS011;11117;48.644;9.006;2024-01-25T11:32:52;11.70;;;2.40;;
21905;SDS011;11117;48.644;9.006;2024-01-25T11:35:18;12.47;;;2.33;;
21905;SDS011;11117;48.644;9.006;2024-01-25T11:37:45;13.17;;;2.47;;
21905;SDS011;11117;48.644;9.006;2024-01-25T11:40:11;14.43;;;2.53;;
21905;SDS011;11117;48.644;9.006;2024-01-25T11:42:38;12.40;;;2.50;;
21905;SDS011;11117;48.644;9.006;2024-01-25T11:45:05;17.33;;;2.90;;
21905;SDS011;11117;48.644;9.006;2024-01-25T11:47:33;13.20;;;2.40;;
21905;SDS011;11117;48.644;9.006;2024-01-25T11:49:59;15.10;;;2.70;;
21905;SDS011;11117;48.644;9.006;2024-01-25T11:52:24;13.93;;;2.40;;
21905;SDS011;11117;48.644;9.006;2024-01-25T11:54:50;15.47;;;2.70;;
21905;SDS011;11117;48.644;9.006;2024-01-25T11:57:15;15.37;;;3.80;;
21905;SDS011;11117;48.644;9.006;2024-01-25T11:59:41;10.97;;;2.63;;
21905;SDS011;11117;48.644;9.006;2024-01-25T12:02:08;13.97;;;1.97;;
21905;SDS011;11117;48.644;9.006;2024-01-25T12:04:34;13.43;;;2.70;;
21905;SDS011;11117;48.644;9.006;2024-01-25T12:06:59;12.77;;;2.50;;
21905;SDS011;11117;48.644;9.006;2024-01-25T12:09:25;13.07;;;2.50;;
21905;SDS011;11117;48.644;9.006;2024-01-25T12:11:51;14.37;;;2.73;;
21905;SDS011;11117;48.644;9.006;2024-01-25T12:14:16;12.27;;;2.33;;
21905;SDS011;11117;48.644;9.006;2024-01-25T12:16:42;14.87;;;2.47;;
21905;SDS011;11117;48.644;9.006;2024-01-25T12:19:08;14.20;;;2.30;;
21905;SDS011;11117;48.644;9.006;2024-01-25T12:21:33;9.87;;;2.10;;
21905;SDS011;11117;48.644;9.006;2024-01-25T12:23:59;10.77;;;2.03;;
21905;SDS011;11117;48.644;9.006;2024-01-25T12:26:25;12.63;;;2.20;;
21905;SDS011;11117;48.644;9.006;2024-01-25T12:28:50;8.50;;;2.10;;
21905;SDS011;11117;48.644;9.006;2024-01-25T12:31:16;10.70;;;1.97;;
21905;SDS011;11117;48.644;9.006;2024-01-25T12:33:41;10.33;;;2.10;;
21905;SDS011;11117;48.644;9.006;2024-01-25T12:36:07;15.47;;;2.50;;
21905;SDS011;11117;48.644;9.006;2024-01-25T12:38:33;12.80;;;2.17;;
21905;SDS011;11117;48.644;9.006;2024-01-25T12:40:58;11.27;;;2.03;;
21905;SDS011;11117;48.644;9.006;2024-01-25T12:43:24;13.70;;;2.43;;
21905;SDS011;11117;48.644;9.006;2024-01-25T12:45:50;13.40;;;2.40;;
21905;SDS011;11117;48.644;9.006;2024-01-25T12:48:16;9.47;;;2.23;;
21905;SDS011;11117;48.644;9.006;2024-01-25T12:50:42;9.37;;;1.80;;
21905;SDS011;11117;48.644;9.006;2024-01-25T12:53:09;13.50;;;2.40;;
21905;SDS011;11117;48.644;9.006;2024-01-25T12:55:36;11.27;;;1.90;;
21905;SDS011;11117;48.644;9.006;2024-01-25T12:58:02;17.97;;;3.07;;
21905;SDS011;11117;48.644;9.006;2024-01-25T13:00:28;9.70;;;2.03;;
21905;SDS011;11117;48.644;9.006;2024-01-25T13:02:54;14.07;;;2.13;;
21905;SDS011;11117;48.644;9.006;2024-01-25T13:05:20;8.80;;;2.00;;
21905;SDS011;11117;48.644;9.006;2024-01-25T13:07:45;16.90;;;2.13;;
21905;SDS011;11117;48.644;9.006;2024-01-25T13:10:11;12.73;;;1.77;;
21905;SDS011;11117;48.644;9.006;2024-01-25T13:12:37;8.40;;;2.07;;
21905;SDS011;11117;48.644;9.006;2024-01-25T13:15:04;12.33;;;2.30;;
21905;SDS011;11117;48.644;9.006;2024-01-25T13:17:30;11.20;;;2.20;;
21905;SDS011;11117;48.644;9.006;2024-01-25T13:19:57;9.20;;;1.80;;
21905;SDS011;11117;48.644;9.006;2024-01-25T13:22:22;8.10;;;1.70;;
21905;SDS011;11117;48.644;9.006;2024-01-25T13:24:48;9.20;;;1.73;;
21905;SDS011;11117;48.644;9.006;2024-01-25T13:27:13;8.70;;;1.73;;
21905;SDS011;11117;48.644;9.006;2024-01-25T13:29:39;8.47;;;2.07;;
21905;SDS011;11117;48.644;9.006;2024-01-25T13:32:05;11.00;;;1.97;;
21905;SDS011;11117;48.644;9.006;2024-01-25T13:34:30;10.97;;;2.63;;
21905;SDS011;11117;48.644;9.006;2024-01-25T13:36:56;12.30;;;1.97;;
21905;SDS011;11117;48.644;9.006;2024-01-25T13:39:21;11.47;;;2.00;;
21905;SDS011;11117;48.644;9.006;2024-01-25T13:41:47;9.23;;;2.47;;
21905;SDS011;11117;48.644;9.006;2024-01-25T13:44:13;9.97;;;1.60;;
21905;SDS011;11117;48.644;9.006;2024-01-25T13:46:39;9.50;;;2.10;;
21905;SDS011;11117;48.644;9.006;2024-01-25T13:49:05;11.63;;;2.10;;
21905;SDS011;11117;48.644;9.006;2024-01-25T13:51:30;12.83;;;2.07;;
21905;SDS011;11117;48.644;9.006;2024-01-25T13:53:56;9.63;;;2.00;;
21905;SDS011;11117;48.644;9.006;2024-01-25T13:56:21;12.53;;;2.10;;
21905;SDS011;11117;48.644;9.006;2024-01-25T13:58:47;12.40;;;2.57;;
21905;SDS011;11117;48.644;9.006;2024-01-25T14:01:12;11.60;;;2.60;;
21905;SDS011;11117;48.644;9.006;2024-01-25T14:03:38;11.70;;;2.17;;
21905;SDS011;11117;48.644;9.006;2024-01-25T14:06:03;13.90;;;1.90;;
21905;SDS011;11117;48.644;9.006;2024-01-25T14:08:29;10.63;;;2.37;;
21905;SDS011;11117;48.644;9.006;2024-01-25T14:10:55;14.20;;;2.47;;
21905;SDS011;11117;48.644;9.006;2024-01-25T14:13:21;10.30;;;2.30;;
21905;SDS011;11117;48.644;9.006;2024-01-25T14:15:46;11.87;;;2.00;;
21905;SDS011;11117;48.644;9.006;2024-01-25T14:18:12;10.17;;;2.03;;
21905;SDS011;11117;48.644;9.006;2024-01-25T14:20:37;14.13;;;1.90;;
21905;SDS011;11117;48.644;9.006;2024-01-25T14:23:03;9.30;;;2.10;;
21905;SDS011;11117;48.644;9.006;2024-01-25T14:25:28;7.20;;;1.80;;
21905;SDS011;11117;48.644;9.006;2024-01-25T14:27:54;11.60;;;2.03;;
21905;SDS011;11117;48.644;9.006;2024-01-25T14:30:20;12.03;;;2.17;;